sensor_id;sensor_type;location;lat;lon;timestamp;temperature;humidity
12604;DHT22;6367;52.508;13.284;2022-07-09T00:00:53;19.60;90.80
12604;DHT22;6367;52.508;13.284;2022-07-09T00:03:20;19.70;90.90
12604;DHT22;6367;52.508;13.284;2022-07-09T00:05:45;19.60;90.90
12604;DHT22;6367;52.508;13.284;2022-07-09T00:08:11;19.30;90.80
12604;DHT22;6367;52.508;13.284;2022-07-09T00:10:36;19.50;90.90
12604;DHT22;6367;52.508;13.284;2022-07-09T00:13:05;19.80;91.00
12604;DHT22;6367;52.508;13.284;2022-07-09T00:15:33;19.50;90.90
12604;DHT22;6367;52.508;13.284;2022-07-09T00:17:59;19.40;90.90
12604;DHT22;6367;52.508;13.284;2022-07-09T00:20:25;20.00;91.30
12604;DHT22;6367;52.508;13.284;2022-07-09T00:22:50;19.30;91.20
12604;DHT22;6367;52.508;13.284;2022-07-09T00:25:16;19.30;91.10
12604;DHT22;6367;52.508;13.284;2022-07-09T00:27:41;19.30;91.30
12604;DHT22;6367;52.508;13.284;2022-07-09T00:30:10;19.30;91.30
12604;DHT22;6367;52.508;13.284;2022-07-09T00:32:36;19.20;91.30
12604;DHT22;6367;52.508;13.284;2022-07-09T00:35:01;19.80;91.70
12604;DHT22;6367;52.508;13.284;2022-07-09T00:37:27;19.10;91.40
12604;DHT22;6367;52.508;13.284;2022-07-09T00:40:02;19.10;91.50
12604;DHT22;6367;52.508;13.284;2022-07-09T00:42:28;18.90;91.60
12604;DHT22;6367;52.508;13.284;2022-07-09T00:44:53;19.00;91.60
12604;DHT22;6367;52.508;13.284;2022-07-09T00:47:19;19.30;91.90
12604;DHT22;6367;52.508;13.284;2022-07-09T00:49:45;19.10;92.00
12604;DHT22;6367;52.508;13.284;2022-07-09T00:52:13;19.30;92.20
12604;DHT22;6367;52.508;13.284;2022-07-09T00:54:39;18.70;92.00
12604;DHT22;6367;52.508;13.284;2022-07-09T00:57:07;18.70;92.20
12604;DHT22;6367;52.508;13.284;2022-07-09T00:59:35;18.60;92.20
12604;DHT22;6367;52.508;13.284;2022-07-09T01:02:01;18.50;92.40
12604;DHT22;6367;52.508;13.284;2022-07-09T01:04:27;18.70;92.40
12604;DHT22;6367;52.508;13.284;2022-07-09T01:06:52;18.70;92.20
12604;DHT22;6367;52.508;13.284;2022-07-09T01:09:18;18.60;92.40
12604;DHT22;6367;52.508;13.284;2022-07-09T01:11:44;19.30;92.70
12604;DHT22;6367;52.508;13.284;2022-07-09T01:14:09;18.50;92.50
12604;DHT22;6367;52.508;13.284;2022-07-09T01:16:36;18.50;92.60
12604;DHT22;6367;52.508;13.284;2022-07-09T01:19:05;18.50;92.60
12604;DHT22;6367;52.508;13.284;2022-07-09T01:21:31;18.60;92.80
12604;DHT22;6367;52.508;13.284;2022-07-09T01:23:57;18.50;93.00
12604;DHT22;6367;52.508;13.284;2022-07-09T01:26:23;18.60;92.90
12604;DHT22;6367;52.508;13.284;2022-07-09T01:28:49;18.50;92.80
12604;DHT22;6367;52.508;13.284;2022-07-09T01:31:15;18.70;93.20
12604;DHT22;6367;52.508;13.284;2022-07-09T01:33:41;18.30;93.20
12604;DHT22;6367;52.508;13.284;2022-07-09T01:36:07;18.20;93.30
12604;DHT22;6367;52.508;13.284;2022-07-09T01:38:33;18.10;93.50
12604;DHT22;6367;52.508;13.284;2022-07-09T01:40:58;18.20;93.50
12604;DHT22;6367;52.508;13.284;2022-07-09T01:43:24;18.60;93.90
12604;DHT22;6367;52.508;13.284;2022-07-09T01:45:50;18.20;93.70
12604;DHT22;6367;52.508;13.284;2022-07-09T01:48:16;17.90;94.00
12604;DHT22;6367;52.508;13.284;2022-07-09T01:50:41;18.20;94.20
12604;DHT22;6367;52.508;13.284;2022-07-09T01:53:07;18.10;94.00
12604;DHT22;6367;52.508;13.284;2022-07-09T01:55:33;18.10;94.10
12604;DHT22;6367;52.508;13.284;2022-07-09T01:57:58;18.10;94.10
12604;DHT22;6367;52.508;13.284;2022-07-09T02:00:24;17.90;94.30
12604;DHT22;6367;52.508;13.284;2022-07-09T02:02:53;18.50;94.80
12604;DHT22;6367;52.508;13.284;2022-07-09T02:05:19;17.80;94.60
12604;DHT22;6367;52.508;13.284;2022-07-09T02:07:45;17.80;94.70
12604;DHT22;6367;52.508;13.284;2022-07-09T02:10:10;17.70;94.70
12604;DHT22;6367;52.508;13.284;2022-07-09T02:12:36;17.00;94.70
12604;DHT22;6367;52.508;13.284;2022-07-09T02:15:01;17.60;95.10
12604;DHT22;6367;52.508;13.284;2022-07-09T02:17:27;17.70;95.20
12604;DHT22;6367;52.508;13.284;2022-07-09T02:19:52;17.80;95.10
12604;DHT22;6367;52.508;13.284;2022-07-09T02:22:18;17.70;95.00
12604;DHT22;6367;52.508;13.284;2022-07-09T02:24:44;17.80;95.10
12604;DHT22;6367;52.508;13.284;2022-07-09T02:27:09;17.70;95.20
12604;DHT22;6367;52.508;13.284;2022-07-09T02:29:35;17.60;95.30
12604;DHT22;6367;52.508;13.284;2022-07-09T02:32:00;17.50;95.40
12604;DHT22;6367;52.508;13.284;2022-07-09T02:34:26;17.50;95.60
12604;DHT22;6367;52.508;13.284;2022-07-09T02:36:52;17.50;95.60
12604;DHT22;6367;52.508;13.284;2022-07-09T02:39:17;17.70;95.50
12604;DHT22;6367;52.508;13.284;2022-07-09T02:41:43;17.70;95.50
12604;DHT22;6367;52.508;13.284;2022-07-09T02:44:09;17.70;95.40
12604;DHT22;6367;52.508;13.284;2022-07-09T02:46:35;18.60;95.70
12604;DHT22;6367;52.508;13.284;2022-07-09T02:49:00;18.10;95.50
12604;DHT22;6367;52.508;13.284;2022-07-09T02:51:26;17.70;95.40
12604;DHT22;6367;52.508;13.284;2022-07-09T02:53:51;17.60;95.40
12604;DHT22;6367;52.508;13.284;2022-07-09T02:56:17;17.50;95.90
12604;DHT22;6367;52.508;13.284;2022-07-09T02:58:42;17.40;95.90
12604;DHT22;6367;52.508;13.284;2022-07-09T03:01:08;17.50;95.80
12604;DHT22;6367;52.508;13.284;2022-07-09T03:03:34;18.10;96.10
12604;DHT22;6367;52.508;13.284;2022-07-09T03:06:01;17.80;96.10
12604;DHT22;6367;52.508;13.284;2022-07-09T03:08:27;17.50;95.90
12604;DHT22;6367;52.508;13.284;2022-07-09T03:10:53;17.80;96.00
12604;DHT22;6367;52.508;13.284;2022-07-09T03:13:19;18.30;96.20
12604;DHT22;6367;52.508;13.284;2022-07-09T03:15:44;18.30;96.10
12604;DHT22;6367;52.508;13.284;2022-07-09T03:18:10;17.70;95.80
12604;DHT22;6367;52.508;13.284;2022-07-09T03:20:36;17.90;95.80
12604;DHT22;6367;52.508;13.284;2022-07-09T03:23:03;18.20;95.80
12604;DHT22;6367;52.508;13.284;2022-07-09T03:25:28;17.80;95.70
12604;DHT22;6367;52.508;13.284;2022-07-09T03:27:54;17.80;95.70
12604;DHT22;6367;52.508;13.284;2022-07-09T03:30:20;17.80;95.60
12604;DHT22;6367;52.508;13.284;2022-07-09T03:32:45;17.70;95.80
12604;DHT22;6367;52.508;13.284;2022-07-09T03:35:11;17.70;95.80
12604;DHT22;6367;52.508;13.284;2022-07-09T03:37:36;18.20;96.00
12604;DHT22;6367;52.508;13.284;2022-07-09T03:40:02;17.70;95.70
12604;DHT22;6367;52.508;13.284;2022-07-09T03:42:28;17.70;95.90
12604;DHT22;6367;52.508;13.284;2022-07-09T03:44:54;17.70;95.80
12604;DHT22;6367;52.508;13.284;2022-07-09T03:47:19;17.80;95.60
12604;DHT22;6367;52.508;13.284;2022-07-09T03:49:45;17.80;95.50
12604;DHT22;6367;52.508;13.284;2022-07-09T03:52:11;17.80;95.00
12604;DHT22;6367;52.508;13.284;2022-07-09T03:54:37;17.80;95.00
12604;DHT22;6367;52.508;13.284;2022-07-09T03:57:02;17.90;94.90
12604;DHT22;6367;52.508;13.284;2022-07-09T03:59:28;17.90;94.80
12604;DHT22;6367;52.508;13.284;2022-07-09T04:01:53;17.90;94.80
12604;DHT22;6367;52.508;13.284;2022-07-09T04:04:19;17.80;95.00
12604;DHT22;6367;52.508;13.284;2022-07-09T04:06:45;17.80;95.00
12604;DHT22;6367;52.508;13.284;2022-07-09T04:09:10;17.90;94.90
12604;DHT22;6367;52.508;13.284;2022-07-09T04:11:36;18.20;95.00
12604;DHT22;6367;52.508;13.284;2022-07-09T04:14:02;17.90;94.80
12604;DHT22;6367;52.508;13.284;2022-07-09T04:16:28;17.80;94.90
12604;DHT22;6367;52.508;13.284;2022-07-09T04:18:54;17.90;95.00
12604;DHT22;6367;52.508;13.284;2022-07-09T04:21:20;18.20;94.90
12604;DHT22;6367;52.508;13.284;2022-07-09T04:23:50;17.70;95.00
12604;DHT22;6367;52.508;13.284;2022-07-09T04:26:16;18.00;95.20
12604;DHT22;6367;52.508;13.284;2022-07-09T04:28:42;17.90;95.00
12604;DHT22;6367;52.508;13.284;2022-07-09T04:31:08;17.90;95.00
12604;DHT22;6367;52.508;13.284;2022-07-09T04:33:33;18.00;94.90
12604;DHT22;6367;52.508;13.284;2022-07-09T04:35:59;18.00;95.00
12604;DHT22;6367;52.508;13.284;2022-07-09T04:38:24;17.90;95.00
12604;DHT22;6367;52.508;13.284;2022-07-09T04:40:50;18.10;95.00
12604;DHT22;6367;52.508;13.284;2022-07-09T04:43:16;18.20;95.00
12604;DHT22;6367;52.508;13.284;2022-07-09T04:45:42;18.20;94.90
12604;DHT22;6367;52.508;13.284;2022-07-09T04:48:07;18.20;95.00
12604;DHT22;6367;52.508;13.284;2022-07-09T04:50:33;18.80;95.30
12604;DHT22;6367;52.508;13.284;2022-07-09T04:52:58;18.20;94.90
12604;DHT22;6367;52.508;13.284;2022-07-09T04:55:24;18.20;95.20
12604;DHT22;6367;52.508;13.284;2022-07-09T04:57:49;18.20;95.30
12604;DHT22;6367;52.508;13.284;2022-07-09T05:00:15;18.20;95.70
12604;DHT22;6367;52.508;13.284;2022-07-09T05:02:42;18.10;95.50
12604;DHT22;6367;52.508;13.284;2022-07-09T05:05:08;18.10;95.60
12604;DHT22;6367;52.508;13.284;2022-07-09T05:07:34;18.20;95.80
12604;DHT22;6367;52.508;13.284;2022-07-09T05:10:00;18.20;95.80
12604;DHT22;6367;52.508;13.284;2022-07-09T05:12:27;18.20;95.80
12604;DHT22;6367;52.508;13.284;2022-07-09T05:14:53;18.20;96.00
12604;DHT22;6367;52.508;13.284;2022-07-09T05:17:18;18.30;96.00
12604;DHT22;6367;52.508;13.284;2022-07-09T05:19:44;18.30;96.10
12604;DHT22;6367;52.508;13.284;2022-07-09T05:22:09;18.50;96.20
12604;DHT22;6367;52.508;13.284;2022-07-09T05:24:35;18.30;96.10
12604;DHT22;6367;52.508;13.284;2022-07-09T05:27:00;18.40;96.10
12604;DHT22;6367;52.508;13.284;2022-07-09T05:29:26;18.70;96.20
12604;DHT22;6367;52.508;13.284;2022-07-09T05:31:52;18.60;96.00
12604;DHT22;6367;52.508;13.284;2022-07-09T05:34:18;18.60;96.00
12604;DHT22;6367;52.508;13.284;2022-07-09T05:36:44;18.60;96.00
12604;DHT22;6367;52.508;13.284;2022-07-09T05:39:10;18.70;96.00
12604;DHT22;6367;52.508;13.284;2022-07-09T05:41:35;18.60;96.10
12604;DHT22;6367;52.508;13.284;2022-07-09T05:44:01;19.10;96.40
12604;DHT22;6367;52.508;13.284;2022-07-09T05:46:29;18.60;96.10
12604;DHT22;6367;52.508;13.284;2022-07-09T05:48:55;18.70;96.10
12604;DHT22;6367;52.508;13.284;2022-07-09T05:51:21;18.80;96.10
12604;DHT22;6367;52.508;13.284;2022-07-09T05:53:46;18.90;96.10
12604;DHT22;6367;52.508;13.284;2022-07-09T05:56:12;19.50;96.10
12604;DHT22;6367;52.508;13.284;2022-07-09T05:58:38;19.00;95.80
12604;DHT22;6367;52.508;13.284;2022-07-09T06:01:04;19.10;95.70
12604;DHT22;6367;52.508;13.284;2022-07-09T06:03:30;19.10;95.60
12604;DHT22;6367;52.508;13.284;2022-07-09T06:05:56;19.70;95.60
12604;DHT22;6367;52.508;13.284;2022-07-09T06:08:22;19.30;95.30
12604;DHT22;6367;52.508;13.284;2022-07-09T06:10:48;19.40;95.20
12604;DHT22;6367;52.508;13.284;2022-07-09T06:13:14;19.40;95.50
12604;DHT22;6367;52.508;13.284;2022-07-09T06:15:39;19.50;95.10
12604;DHT22;6367;52.508;13.284;2022-07-09T06:18:05;19.40;95.10
12604;DHT22;6367;52.508;13.284;2022-07-09T06:20:31;19.90;95.50
12604;DHT22;6367;52.508;13.284;2022-07-09T06:22:56;19.50;95.10
12604;DHT22;6367;52.508;13.284;2022-07-09T06:25:22;19.50;95.00
12604;DHT22;6367;52.508;13.284;2022-07-09T06:27:48;19.50;95.00
12604;DHT22;6367;52.508;13.284;2022-07-09T06:30:14;19.60;95.20
12604;DHT22;6367;52.508;13.284;2022-07-09T06:32:39;19.50;94.50
12604;DHT22;6367;52.508;13.284;2022-07-09T06:35:05;20.00;94.70
12604;DHT22;6367;52.508;13.284;2022-07-09T06:37:31;19.60;94.40
12604;DHT22;6367;52.508;13.284;2022-07-09T06:39:57;20.10;94.90
12604;DHT22;6367;52.508;13.284;2022-07-09T06:42:24;19.60;94.60
12604;DHT22;6367;52.508;13.284;2022-07-09T06:44:50;19.70;94.60
12604;DHT22;6367;52.508;13.284;2022-07-09T06:47:16;20.20;95.00
12604;DHT22;6367;52.508;13.284;2022-07-09T06:49:42;20.10;95.00
12604;DHT22;6367;52.508;13.284;2022-07-09T06:52:07;19.70;94.80
12604;DHT22;6367;52.508;13.284;2022-07-09T06:54:34;19.90;95.00
12604;DHT22;6367;52.508;13.284;2022-07-09T06:57:00;19.80;94.90
12604;DHT22;6367;52.508;13.284;2022-07-09T06:59:26;19.90;94.70
12604;DHT22;6367;52.508;13.284;2022-07-09T07:01:52;20.00;94.50
12604;DHT22;6367;52.508;13.284;2022-07-09T07:04:18;20.00;94.30
12604;DHT22;6367;52.508;13.284;2022-07-09T07:06:45;20.10;94.40
12604;DHT22;6367;52.508;13.284;2022-07-09T07:09:16;20.20;94.00
12604;DHT22;6367;52.508;13.284;2022-07-09T07:11:47;20.20;94.00
12604;DHT22;6367;52.508;13.284;2022-07-09T07:14:14;20.20;94.00
12604;DHT22;6367;52.508;13.284;2022-07-09T07:16:40;20.50;94.00
12604;DHT22;6367;52.508;13.284;2022-07-09T07:19:05;20.30;93.80
12604;DHT22;6367;52.508;13.284;2022-07-09T07:21:31;20.30;93.70
12604;DHT22;6367;52.508;13.284;2022-07-09T07:23:56;20.40;93.70
12604;DHT22;6367;52.508;13.284;2022-07-09T07:26:22;20.40;93.60
12604;DHT22;6367;52.508;13.284;2022-07-09T07:28:48;20.40;93.60
12604;DHT22;6367;52.508;13.284;2022-07-09T07:31:14;20.30;93.60
12604;DHT22;6367;52.508;13.284;2022-07-09T07:33:40;20.30;93.80
12604;DHT22;6367;52.508;13.284;2022-07-09T07:36:06;20.40;93.80
12604;DHT22;6367;52.508;13.284;2022-07-09T07:38:36;20.30;93.80
12604;DHT22;6367;52.508;13.284;2022-07-09T07:41:02;20.30;93.90
12604;DHT22;6367;52.508;13.284;2022-07-09T07:43:27;20.40;93.80
12604;DHT22;6367;52.508;13.284;2022-07-09T07:45:53;20.50;93.60
12604;DHT22;6367;52.508;13.284;2022-07-09T07:48:18;20.50;93.40
12604;DHT22;6367;52.508;13.284;2022-07-09T07:50:44;20.50;93.40
12604;DHT22;6367;52.508;13.284;2022-07-09T07:53:10;20.60;93.50
12604;DHT22;6367;52.508;13.284;2022-07-09T07:55:35;20.60;93.50
12604;DHT22;6367;52.508;13.284;2022-07-09T07:58:01;20.70;93.40
12604;DHT22;6367;52.508;13.284;2022-07-09T08:00:27;20.70;93.50
12604;DHT22;6367;52.508;13.284;2022-07-09T08:02:52;20.70;93.50
12604;DHT22;6367;52.508;13.284;2022-07-09T08:05:18;20.70;93.50
12604;DHT22;6367;52.508;13.284;2022-07-09T08:07:43;20.80;93.30
12604;DHT22;6367;52.508;13.284;2022-07-09T08:10:10;20.80;93.30
12604;DHT22;6367;52.508;13.284;2022-07-09T08:12:35;20.80;93.50
12604;DHT22;6367;52.508;13.284;2022-07-09T08:15:01;20.80;93.60
12604;DHT22;6367;52.508;13.284;2022-07-09T08:17:27;20.80;93.50
12604;DHT22;6367;52.508;13.284;2022-07-09T08:19:52;20.80;93.50
12604;DHT22;6367;52.508;13.284;2022-07-09T08:22:18;21.40;93.60
12604;DHT22;6367;52.508;13.284;2022-07-09T08:24:43;20.80;93.40
12604;DHT22;6367;52.508;13.284;2022-07-09T08:27:09;20.90;93.30
12604;DHT22;6367;52.508;13.284;2022-07-09T08:29:34;20.90;93.40
12604;DHT22;6367;52.508;13.284;2022-07-09T08:32:00;20.90;93.50
12604;DHT22;6367;52.508;13.284;2022-07-09T08:34:26;20.90;93.60
12604;DHT22;6367;52.508;13.284;2022-07-09T08:36:51;21.00;93.50
12604;DHT22;6367;52.508;13.284;2022-07-09T08:39:17;21.10;93.50
12604;DHT22;6367;52.508;13.284;2022-07-09T08:41:43;21.20;93.50
12604;DHT22;6367;52.508;13.284;2022-07-09T08:44:12;21.20;93.30
12604;DHT22;6367;52.508;13.284;2022-07-09T08:46:39;21.20;93.30
12604;DHT22;6367;52.508;13.284;2022-07-09T08:49:06;21.30;93.20
12604;DHT22;6367;52.508;13.284;2022-07-09T08:51:33;21.40;92.90
12604;DHT22;6367;52.508;13.284;2022-07-09T08:54:00;21.50;93.00
12604;DHT22;6367;52.508;13.284;2022-07-09T08:56:26;21.50;92.70
12604;DHT22;6367;52.508;13.284;2022-07-09T08:58:52;21.60;92.70
12604;DHT22;6367;52.508;13.284;2022-07-09T09:01:18;21.60;92.60
12604;DHT22;6367;52.508;13.284;2022-07-09T09:03:44;21.60;92.60
12604;DHT22;6367;52.508;13.284;2022-07-09T09:06:11;21.70;92.40
12604;DHT22;6367;52.508;13.284;2022-07-09T09:08:44;21.60;92.50
12604;DHT22;6367;52.508;13.284;2022-07-09T09:11:19;21.50;92.60
12604;DHT22;6367;52.508;13.284;2022-07-09T09:13:47;21.50;92.70
12604;DHT22;6367;52.508;13.284;2022-07-09T09:16:14;21.50;92.90
12604;DHT22;6367;52.508;13.284;2022-07-09T09:18:52;21.50;92.90
12604;DHT22;6367;52.508;13.284;2022-07-09T09:21:23;21.40;93.00
12604;DHT22;6367;52.508;13.284;2022-07-09T09:23:54;21.40;93.60
12604;DHT22;6367;52.508;13.284;2022-07-09T09:26:21;21.30;94.10
12604;DHT22;6367;52.508;13.284;2022-07-09T09:33:56;21.20;96.20
12604;DHT22;6367;52.508;13.284;2022-07-09T09:36:29;21.10;97.00
12604;DHT22;6367;52.508;13.284;2022-07-09T09:41:32;20.70;97.80
12604;DHT22;6367;52.508;13.284;2022-07-09T09:44:01;20.60;98.30
12604;DHT22;6367;52.508;13.284;2022-07-09T09:46:28;20.40;98.80
12604;DHT22;6367;52.508;13.284;2022-07-09T09:48:56;20.30;99.20
12604;DHT22;6367;52.508;13.284;2022-07-09T09:51:22;20.30;99.70
12604;DHT22;6367;52.508;13.284;2022-07-09T09:53:49;20.20;99.90
12604;DHT22;6367;52.508;13.284;2022-07-09T09:56:16;20.10;99.90
12604;DHT22;6367;52.508;13.284;2022-07-09T09:58:42;20.20;99.90
12604;DHT22;6367;52.508;13.284;2022-07-09T10:01:07;20.30;99.90
12604;DHT22;6367;52.508;13.284;2022-07-09T10:03:33;20.40;99.90
12604;DHT22;6367;52.508;13.284;2022-07-09T10:05:59;20.50;99.90
12604;DHT22;6367;52.508;13.284;2022-07-09T10:08:25;20.60;99.90
12604;DHT22;6367;52.508;13.284;2022-07-09T10:10:51;20.70;99.90
12604;DHT22;6367;52.508;13.284;2022-07-09T10:13:21;20.70;99.90
12604;DHT22;6367;52.508;13.284;2022-07-09T10:15:50;20.80;99.90
12604;DHT22;6367;52.508;13.284;2022-07-09T10:18:21;20.90;99.90
12604;DHT22;6367;52.508;13.284;2022-07-09T10:20:47;20.90;99.90
12604;DHT22;6367;52.508;13.284;2022-07-09T10:23:25;21.00;99.90
12604;DHT22;6367;52.508;13.284;2022-07-09T10:25:52;21.00;99.90
12604;DHT22;6367;52.508;13.284;2022-07-09T10:28:21;21.10;99.90
12604;DHT22;6367;52.508;13.284;2022-07-09T10:30:47;21.30;99.90
12604;DHT22;6367;52.508;13.284;2022-07-09T10:33:23;21.30;99.80
12604;DHT22;6367;52.508;13.284;2022-07-09T10:35:50;21.40;99.80
12604;DHT22;6367;52.508;13.284;2022-07-09T10:38:18;21.50;98.90
12604;DHT22;6367;52.508;13.284;2022-07-09T10:40:45;22.00;98.40
12604;DHT22;6367;52.508;13.284;2022-07-09T10:43:12;21.60;98.20
12604;DHT22;6367;52.508;13.284;2022-07-09T10:45:44;21.80;98.00
12604;DHT22;6367;52.508;13.284;2022-07-09T10:48:12;22.00;97.60
12604;DHT22;6367;52.508;13.284;2022-07-09T10:50:40;22.10;97.40
12604;DHT22;6367;52.508;13.284;2022-07-09T10:53:06;22.10;97.10
12604;DHT22;6367;52.508;13.284;2022-07-09T10:55:32;22.20;97.30
12604;DHT22;6367;52.508;13.284;2022-07-09T10:57:58;22.50;96.70
12604;DHT22;6367;52.508;13.284;2022-07-09T11:00:28;22.70;96.10
12604;DHT22;6367;52.508;13.284;2022-07-09T11:03:03;22.70;95.40
12604;DHT22;6367;52.508;13.284;2022-07-09T11:05:31;22.90;94.80
12604;DHT22;6367;52.508;13.284;2022-07-09T11:08:01;23.30;94.00
12604;DHT22;6367;52.508;13.284;2022-07-09T11:10:28;23.20;93.30
12604;DHT22;6367;52.508;13.284;2022-07-09T11:12:55;23.30;93.10
12604;DHT22;6367;52.508;13.284;2022-07-09T11:15:21;23.50;92.50
12604;DHT22;6367;52.508;13.284;2022-07-09T11:17:57;23.60;92.10
12604;DHT22;6367;52.508;13.284;2022-07-09T11:20:23;23.60;91.70
12604;DHT22;6367;52.508;13.284;2022-07-09T11:22:49;23.60;91.60
12604;DHT22;6367;52.508;13.284;2022-07-09T11:25:16;23.60;91.30
12604;DHT22;6367;52.508;13.284;2022-07-09T11:27:42;23.70;90.90
12604;DHT22;6367;52.508;13.284;2022-07-09T11:30:17;24.10;90.80
12604;DHT22;6367;52.508;13.284;2022-07-09T11:32:43;23.70;90.30
12604;DHT22;6367;52.508;13.284;2022-07-09T11:35:10;23.50;90.50
12604;DHT22;6367;52.508;13.284;2022-07-09T11:37:36;23.60;90.60
12604;DHT22;6367;52.508;13.284;2022-07-09T11:40:02;23.70;90.20
12604;DHT22;6367;52.508;13.284;2022-07-09T11:42:27;23.70;90.00
12604;DHT22;6367;52.508;13.284;2022-07-09T11:44:58;23.70;90.00
12604;DHT22;6367;52.508;13.284;2022-07-09T11:47:32;23.70;89.60
12604;DHT22;6367;52.508;13.284;2022-07-09T11:50:09;23.80;89.40
12604;DHT22;6367;52.508;13.284;2022-07-09T11:52:43;23.70;89.30
12604;DHT22;6367;52.508;13.284;2022-07-09T11:55:11;23.60;89.50
12604;DHT22;6367;52.508;13.284;2022-07-09T11:57:37;23.50;89.80
12604;DHT22;6367;52.508;13.284;2022-07-09T12:00:05;23.50;90.20
12604;DHT22;6367;52.508;13.284;2022-07-09T12:02:32;23.40;90.30
12604;DHT22;6367;52.508;13.284;2022-07-09T12:04:59;23.50;90.10
12604;DHT22;6367;52.508;13.284;2022-07-09T12:07:25;23.50;89.90
12604;DHT22;6367;52.508;13.284;2022-07-09T12:10:10;23.50;90.00
12604;DHT22;6367;52.508;13.284;2022-07-09T12:12:36;23.40;90.20
12604;DHT22;6367;52.508;13.284;2022-07-09T12:15:04;23.50;90.30
12604;DHT22;6367;52.508;13.284;2022-07-09T12:17:31;23.50;90.30
12604;DHT22;6367;52.508;13.284;2022-07-09T12:19:58;23.60;90.00
12604;DHT22;6367;52.508;13.284;2022-07-09T12:22:24;23.50;89.00
12604;DHT22;6367;52.508;13.284;2022-07-09T12:24:52;23.70;89.10
12604;DHT22;6367;52.508;13.284;2022-07-09T12:27:18;23.80;88.80
12604;DHT22;6367;52.508;13.284;2022-07-09T12:29:45;23.60;88.20
12604;DHT22;6367;52.508;13.284;2022-07-09T12:32:10;23.60;87.50
12604;DHT22;6367;52.508;13.284;2022-07-09T12:34:36;23.50;86.90
12604;DHT22;6367;52.508;13.284;2022-07-09T12:37:02;23.50;90.10
12604;DHT22;6367;52.508;13.284;2022-07-09T12:39:28;23.30;91.70
12604;DHT22;6367;52.508;13.284;2022-07-09T12:41:54;23.10;93.30
12604;DHT22;6367;52.508;13.284;2022-07-09T12:44:19;23.10;94.60
12604;DHT22;6367;52.508;13.284;2022-07-09T12:46:45;22.70;95.80
12604;DHT22;6367;52.508;13.284;2022-07-09T12:49:11;22.40;96.50
12604;DHT22;6367;52.508;13.284;2022-07-09T12:51:36;22.20;97.00
12604;DHT22;6367;52.508;13.284;2022-07-09T12:54:02;22.00;97.60
12604;DHT22;6367;52.508;13.284;2022-07-09T12:56:28;21.80;98.40
12604;DHT22;6367;52.508;13.284;2022-07-09T12:58:53;21.80;99.40
12604;DHT22;6367;52.508;13.284;2022-07-09T13:01:19;21.60;99.90
12604;DHT22;6367;52.508;13.284;2022-07-09T13:03:45;21.60;99.90
12604;DHT22;6367;52.508;13.284;2022-07-09T13:06:10;21.50;99.90
12604;DHT22;6367;52.508;13.284;2022-07-09T13:08:55;21.40;99.90
12604;DHT22;6367;52.508;13.284;2022-07-09T13:11:20;21.60;99.90
12604;DHT22;6367;52.508;13.284;2022-07-09T13:13:46;21.40;99.90
12604;DHT22;6367;52.508;13.284;2022-07-09T13:16:12;21.40;99.90
12604;DHT22;6367;52.508;13.284;2022-07-09T13:18:38;21.30;99.90
12604;DHT22;6367;52.508;13.284;2022-07-09T13:21:03;21.70;99.90
12604;DHT22;6367;52.508;13.284;2022-07-09T13:23:30;21.40;99.90
12604;DHT22;6367;52.508;13.284;2022-07-09T13:25:56;22.00;99.90
12604;DHT22;6367;52.508;13.284;2022-07-09T13:28:22;21.30;99.90
12604;DHT22;6367;52.508;13.284;2022-07-09T13:30:47;21.60;99.90
12604;DHT22;6367;52.508;13.284;2022-07-09T13:33:13;21.30;99.90
12604;DHT22;6367;52.508;13.284;2022-07-09T13:35:39;21.40;99.90
12604;DHT22;6367;52.508;13.284;2022-07-09T13:38:04;21.40;99.90
12604;DHT22;6367;52.508;13.284;2022-07-09T13:40:30;22.10;99.90
12604;DHT22;6367;52.508;13.284;2022-07-09T13:42:56;21.60;99.90
12604;DHT22;6367;52.508;13.284;2022-07-09T13:45:22;21.70;99.90
12604;DHT22;6367;52.508;13.284;2022-07-09T13:47:48;21.70;99.90
12604;DHT22;6367;52.508;13.284;2022-07-09T13:50:13;21.70;99.90
12604;DHT22;6367;52.508;13.284;2022-07-09T13:52:39;21.80;99.90
12604;DHT22;6367;52.508;13.284;2022-07-09T13:55:05;22.40;99.90
12604;DHT22;6367;52.508;13.284;2022-07-09T13:57:31;21.80;99.90
12604;DHT22;6367;52.508;13.284;2022-07-09T13:59:57;21.70;99.90
12604;DHT22;6367;52.508;13.284;2022-07-09T14:02:26;21.70;99.90
12604;DHT22;6367;52.508;13.284;2022-07-09T14:04:52;21.60;99.90
12604;DHT22;6367;52.508;13.284;2022-07-09T14:07:18;21.60;99.90
12604;DHT22;6367;52.508;13.284;2022-07-09T14:09:44;21.70;99.90
12604;DHT22;6367;52.508;13.284;2022-07-09T14:12:09;21.70;99.90
12604;DHT22;6367;52.508;13.284;2022-07-09T14:14:35;22.30;99.90
12604;DHT22;6367;52.508;13.284;2022-07-09T14:17:01;21.80;99.90
12604;DHT22;6367;52.508;13.284;2022-07-09T14:19:27;21.80;99.90
12604;DHT22;6367;52.508;13.284;2022-07-09T14:21:52;21.90;99.90
12604;DHT22;6367;52.508;13.284;2022-07-09T14:24:18;21.90;99.90
12604;DHT22;6367;52.508;13.284;2022-07-09T14:26:44;21.30;99.90
12604;DHT22;6367;52.508;13.284;2022-07-09T14:29:11;22.00;99.90
12604;DHT22;6367;52.508;13.284;2022-07-09T14:31:37;22.10;99.90
12604;DHT22;6367;52.508;13.284;2022-07-09T14:34:03;22.00;99.70
12604;DHT22;6367;52.508;13.284;2022-07-09T14:36:29;22.10;99.50
12604;DHT22;6367;52.508;13.284;2022-07-09T14:38:55;22.00;99.30
12604;DHT22;6367;52.508;13.284;2022-07-09T14:41:21;22.00;99.40
12604;DHT22;6367;52.508;13.284;2022-07-09T14:43:47;22.00;99.40
12604;DHT22;6367;52.508;13.284;2022-07-09T14:46:12;22.10;99.30
12604;DHT22;6367;52.508;13.284;2022-07-09T14:48:38;22.10;99.40
12604;DHT22;6367;52.508;13.284;2022-07-09T14:51:06;22.10;99.60
12604;DHT22;6367;52.508;13.284;2022-07-09T14:53:32;22.20;98.80
12604;DHT22;6367;52.508;13.284;2022-07-09T14:55:58;22.20;97.70
12604;DHT22;6367;52.508;13.284;2022-07-09T14:58:25;22.20;97.20
12604;DHT22;6367;52.508;13.284;2022-07-09T15:00:51;22.20;96.90
12604;DHT22;6367;52.508;13.284;2022-07-09T15:03:17;22.20;96.30
12604;DHT22;6367;52.508;13.284;2022-07-09T15:05:42;22.20;96.50
12604;DHT22;6367;52.508;13.284;2022-07-09T15:08:08;22.20;96.00
12604;DHT22;6367;52.508;13.284;2022-07-09T15:10:33;22.30;94.90
12604;DHT22;6367;52.508;13.284;2022-07-09T15:12:59;22.30;94.90
12604;DHT22;6367;52.508;13.284;2022-07-09T15:15:25;22.80;95.10
12604;DHT22;6367;52.508;13.284;2022-07-09T15:17:51;22.30;94.40
12604;DHT22;6367;52.508;13.284;2022-07-09T15:20:17;22.40;93.70
12604;DHT22;6367;52.508;13.284;2022-07-09T15:22:44;22.40;93.70
12604;DHT22;6367;52.508;13.284;2022-07-09T15:25:09;22.40;93.50
12604;DHT22;6367;52.508;13.284;2022-07-09T15:27:36;22.20;93.60
12604;DHT22;6367;52.508;13.284;2022-07-09T15:30:03;22.30;93.70
12604;DHT22;6367;52.508;13.284;2022-07-09T15:32:29;22.40;94.20